sensor_id;sensor_type;location;lat;lon;timestamp;P1;durP1;ratioP1;P2;durP2;ratioP2
4422;SDS011;2224;49.814;8.650;2023-04-25T00:02:23;8.07;;;7.10;;
4422;SDS011;2224;49.814;8.650;2023-04-25T00:04:49;9.60;;;8.20;;
4422;SDS011;2224;49.814;8.650;2023-04-25T00:07:15;8.97;;;8.07;;
4422;SDS011;2224;49.814;8.650;2023-04-25T00:09:41;7.47;;;6.37;;
4422;SDS011;2224;49.814;8.650;2023-04-25T00:12:06;9.70;;;7.40;;
4422;SDS011;2224;49.814;8.650;2023-04-25T00:14:32;8.57;;;7.37;;
4422;SDS011;2224;49.814;8.650;2023-04-25T00:16:59;9.30;;;7.57;;
4422;SDS011;2224;49.814;8.650;2023-04-25T00:19:24;8.33;;;6.90;;
4422;SDS011;2224;49.814;8.650;2023-04-25T00:21:51;11.40;;;8.03;;
4422;SDS011;2224;49.814;8.650;2023-04-25T00:24:17;10.80;;;9.17;;
4422;SDS011;2224;49.814;8.650;2023-04-25T00:26:42;9.00;;;8.10;;
4422;SDS011;2224;49.814;8.650;2023-04-25T00:29:07;9.17;;;8.13;;
4422;SDS011;2224;49.814;8.650;2023-04-25T00:31:33;10.13;;;8.73;;
4422;SDS011;2224;49.814;8.650;2023-04-25T00:33:58;11.83;;;9.73;;
4422;SDS011;2224;49.814;8.650;2023-04-25T00:36:23;12.40;;;9.77;;
4422;SDS011;2224;49.814;8.650;2023-04-25T00:38:49;10.40;;;9.20;;
4422;SDS011;2224;49.814;8.650;2023-04-25T00:41:14;11.13;;;9.03;;
4422;SDS011;2224;49.814;8.650;2023-04-25T00:43:40;12.60;;;10.27;;
4422;SDS011;2224;49.814;8.650;2023-04-25T00:46:06;12.27;;;10.67;;
4422;SDS011;2224;49.814;8.650;2023-04-25T00:48:31;13.77;;;10.77;;
4422;SDS011;2224;49.814;8.650;2023-04-25T00:50:57;13.23;;;9.67;;
4422;SDS011;2224;49.814;8.650;2023-04-25T00:53:24;12.67;;;9.80;;
4422;SDS011;2224;49.814;8.650;2023-04-25T00:55:51;15.97;;;11.13;;
4422;SDS011;2224;49.814;8.650;2023-04-25T00:58:17;10.70;;;9.60;;
4422;SDS011;2224;49.814;8.650;2023-04-25T01:00:44;11.77;;;9.73;;
4422;SDS011;2224;49.814;8.650;2023-04-25T01:03:11;11.60;;;10.37;;
4422;SDS011;2224;49.814;8.650;2023-04-25T01:05:37;15.50;;;10.63;;
4422;SDS011;2224;49.814;8.650;2023-04-25T01:08:03;12.60;;;11.00;;
4422;SDS011;2224;49.814;8.650;2023-04-25T01:10:28;16.67;;;12.73;;
4422;SDS011;2224;49.814;8.650;2023-04-25T01:12:53;12.40;;;11.10;;
4422;SDS011;2224;49.814;8.650;2023-04-25T01:15:19;12.13;;;10.83;;
4422;SDS011;2224;49.814;8.650;2023-04-25T01:17:44;13.87;;;10.97;;
4422;SDS011;2224;49.814;8.650;2023-04-25T01:20:09;12.03;;;10.70;;
4422;SDS011;2224;49.814;8.650;2023-04-25T01:22:36;15.20;;;12.27;;
4422;SDS011;2224;49.814;8.650;2023-04-25T01:25:01;10.70;;;9.20;;
4422;SDS011;2224;49.814;8.650;2023-04-25T01:27:27;12.37;;;10.07;;
4422;SDS011;2224;49.814;8.650;2023-04-25T01:29:53;11.03;;;9.93;;
4422;SDS011;2224;49.814;8.650;2023-04-25T01:32:19;10.77;;;9.63;;
4422;SDS011;2224;49.814;8.650;2023-04-25T01:34:45;11.27;;;9.60;;
4422;SDS011;2224;49.814;8.650;2023-04-25T01:37:10;12.57;;;10.77;;
4422;SDS011;2224;49.814;8.650;2023-04-25T01:39:36;12.37;;;10.70;;
4422;SDS011;2224;49.814;8.650;2023-04-25T01:42:01;13.93;;;9.90;;
4422;SDS011;2224;49.814;8.650;2023-04-25T01:44:26;12.07;;;9.70;;
4422;SDS011;2224;49.814;8.650;2023-04-25T01:46:52;12.40;;;9.73;;
4422;SDS011;2224;49.814;8.650;2023-04-25T01:49:18;12.30;;;9.97;;
4422;SDS011;2224;49.814;8.650;2023-04-25T01:51:44;11.83;;;9.67;;
4422;SDS011;2224;49.814;8.650;2023-04-25T01:54:09;10.60;;;9.30;;
4422;SDS011;2224;49.814;8.650;2023-04-25T01:56:36;13.00;;;10.20;;
4422;SDS011;2224;49.814;8.650;2023-04-25T01:59:04;14.60;;;11.53;;
4422;SDS011;2224;49.814;8.650;2023-04-25T02:01:30;14.43;;;11.43;;
4422;SDS011;2224;49.814;8.650;2023-04-25T02:03:55;15.60;;;12.47;;
4422;SDS011;2224;49.814;8.650;2023-04-25T02:06:21;14.27;;;11.90;;
4422;SDS011;2224;49.814;8.650;2023-04-25T02:08:46;13.67;;;11.93;;
4422;SDS011;2224;49.814;8.650;2023-04-25T02:11:11;11.97;;;10.70;;
4422;SDS011;2224;49.814;8.650;2023-04-25T02:13:37;12.13;;;10.93;;
4422;SDS011;2224;49.814;8.650;2023-04-25T02:16:02;12.47;;;10.40;;
4422;SDS011;2224;49.814;8.650;2023-04-25T02:18:27;12.60;;;10.93;;
4422;SDS011;2224;49.814;8.650;2023-04-25T02:20:53;15.47;;;11.00;;
4422;SDS011;2224;49.814;8.650;2023-04-25T02:23:18;13.33;;;10.70;;
4422;SDS011;2224;49.814;8.650;2023-04-25T02:25:44;15.53;;;12.10;;
4422;SDS011;2224;49.814;8.650;2023-04-25T02:28:09;14.93;;;11.10;;
4422;SDS011;2224;49.814;8.650;2023-04-25T02:30:35;12.53;;;10.10;;
4422;SDS011;2224;49.814;8.650;2023-04-25T02:33:01;12.70;;;11.07;;
4422;SDS011;2224;49.814;8.650;2023-04-25T02:35:26;13.53;;;11.00;;
4422;SDS011;2224;49.814;8.650;2023-04-25T02:37:51;14.70;;;11.70;;
4422;SDS011;2224;49.814;8.650;2023-04-25T02:40:17;14.77;;;11.97;;
4422;SDS011;2224;49.814;8.650;2023-04-25T02:42:42;17.63;;;12.27;;
4422;SDS011;2224;49.814;8.650;2023-04-25T02:45:08;13.20;;;11.20;;
4422;SDS011;2224;49.814;8.650;2023-04-25T02:47:33;14.80;;;11.90;;
4422;SDS011;2224;49.814;8.650;2023-04-25T02:49:59;15.60;;;11.73;;
4422;SDS011;2224;49.814;8.650;2023-04-25T02:52:24;17.33;;;12.77;;
4422;SDS011;2224;49.814;8.650;2023-04-25T02:54:50;14.50;;;12.23;;
4422;SDS011;2224;49.814;8.650;2023-04-25T02:57:15;16.60;;;12.93;;
4422;SDS011;2224;49.814;8.650;2023-04-25T02:59:41;19.03;;;12.20;;
4422;SDS011;2224;49.814;8.650;2023-04-25T03:02:06;16.97;;;12.60;;
4422;SDS011;2224;49.814;8.650;2023-04-25T03:04:31;12.93;;;10.47;;
4422;SDS011;2224;49.814;8.650;2023-04-25T03:06:58;16.37;;;12.00;;
4422;SDS011;2224;49.814;8.650;2023-04-25T03:09:23;19.70;;;14.13;;
4422;SDS011;2224;49.814;8.650;2023-04-25T03:11:48;16.10;;;12.67;;
4422;SDS011;2224;49.814;8.650;2023-04-25T03:14:14;16.40;;;13.13;;
4422;SDS011;2224;49.814;8.650;2023-04-25T03:16:40;24.00;;;14.50;;
4422;SDS011;2224;49.814;8.650;2023-04-25T03:19:05;21.70;;;13.77;;
4422;SDS011;2224;49.814;8.650;2023-04-25T03:21:31;17.13;;;13.50;;
4422;SDS011;2224;49.814;8.650;2023-04-25T03:23:57;16.20;;;13.23;;
4422;SDS011;2224;49.814;8.650;2023-04-25T03:26:23;19.03;;;14.07;;
4422;SDS011;2224;49.814;8.650;2023-04-25T03:28:49;18.20;;;14.10;;
4422;SDS011;2224;49.814;8.650;2023-04-25T03:31:14;18.63;;;13.53;;
4422;SDS011;2224;49.814;8.650;2023-04-25T03:33:40;19.50;;;13.73;;
4422;SDS011;2224;49.814;8.650;2023-04-25T03:36:05;20.80;;;15.53;;
4422;SDS011;2224;49.814;8.650;2023-04-25T03:38:31;19.10;;;15.07;;
4422;SDS011;2224;49.814;8.650;2023-04-25T03:40:56;17.40;;;13.30;;
4422;SDS011;2224;49.814;8.650;2023-04-25T03:43:21;19.60;;;14.30;;
4422;SDS011;2224;49.814;8.650;2023-04-25T03:45:47;19.00;;;13.40;;
4422;SDS011;2224;49.814;8.650;2023-04-25T03:48:12;16.20;;;13.07;;
4422;SDS011;2224;49.814;8.650;2023-04-25T03:50:37;16.90;;;13.10;;
4422;SDS011;2224;49.814;8.650;2023-04-25T03:53:03;16.17;;;13.00;;
4422;SDS011;2224;49.814;8.650;2023-04-25T03:55:28;17.50;;;13.50;;
4422;SDS011;2224;49.814;8.650;2023-04-25T03:57:53;16.40;;;13.40;;
4422;SDS011;2224;49.814;8.650;2023-04-25T04:00:19;19.23;;;13.30;;
4422;SDS011;2224;49.814;8.650;2023-04-25T04:02:44;19.60;;;15.20;;
4422;SDS011;2224;49.814;8.650;2023-04-25T04:05:10;17.67;;;13.97;;
4422;SDS011;2224;49.814;8.650;2023-04-25T04:07:35;27.70;;;20.87;;
4422;SDS011;2224;49.814;8.650;2023-04-25T04:10:05;16.93;;;12.40;;
4422;SDS011;2224;49.814;8.650;2023-04-25T04:12:34;15.60;;;12.80;;
4422;SDS011;2224;49.814;8.650;2023-04-25T04:15:00;20.27;;;13.73;;
4422;SDS011;2224;49.814;8.650;2023-04-25T04:17:25;19.50;;;14.50;;
4422;SDS011;2224;49.814;8.650;2023-04-25T04:19:51;23.70;;;15.93;;
4422;SDS011;2224;49.814;8.650;2023-04-25T04:22:16;21.67;;;15.60;;
4422;SDS011;2224;49.814;8.650;2023-04-25T04:24:41;18.70;;;15.27;;
4422;SDS011;2224;49.814;8.650;2023-04-25T04:27:11;18.07;;;15.00;;
4422;SDS011;2224;49.814;8.650;2023-04-25T04:29:37;15.87;;;13.00;;
4422;SDS011;2224;49.814;8.650;2023-04-25T04:32:03;19.07;;;14.20;;
4422;SDS011;2224;49.814;8.650;2023-04-25T04:34:28;18.10;;;13.90;;
4422;SDS011;2224;49.814;8.650;2023-04-25T04:36:53;18.43;;;14.33;;
4422;SDS011;2224;49.814;8.650;2023-04-25T04:39:19;18.40;;;13.80;;
4422;SDS011;2224;49.814;8.650;2023-04-25T04:41:45;16.83;;;12.67;;
4422;SDS011;2224;49.814;8.650;2023-04-25T04:44:11;18.10;;;14.87;;
4422;SDS011;2224;49.814;8.650;2023-04-25T04:46:37;20.90;;;15.40;;
4422;SDS011;2224;49.814;8.650;2023-04-25T04:49:05;17.03;;;13.37;;
4422;SDS011;2224;49.814;8.650;2023-04-25T04:51:30;20.17;;;14.70;;
4422;SDS011;2224;49.814;8.650;2023-04-25T04:53:56;19.60;;;13.77;;
4422;SDS011;2224;49.814;8.650;2023-04-25T04:56:23;20.70;;;15.03;;
4422;SDS011;2224;49.814;8.650;2023-04-25T04:58:50;19.17;;;14.80;;
4422;SDS011;2224;49.814;8.650;2023-04-25T05:01:15;22.80;;;15.47;;
4422;SDS011;2224;49.814;8.650;2023-04-25T05:03:41;20.17;;;15.40;;
4422;SDS011;2224;49.814;8.650;2023-04-25T05:06:06;22.67;;;15.90;;
4422;SDS011;2224;49.814;8.650;2023-04-25T05:08:31;20.93;;;16.97;;
4422;SDS011;2224;49.814;8.650;2023-04-25T05:10:57;20.77;;;16.47;;
4422;SDS011;2224;49.814;8.650;2023-04-25T05:13:22;19.60;;;14.93;;
4422;SDS011;2224;49.814;8.650;2023-04-25T05:15:47;16.67;;;13.33;;
4422;SDS011;2224;49.814;8.650;2023-04-25T05:18:13;17.53;;;12.67;;
4422;SDS011;2224;49.814;8.650;2023-04-25T05:20:38;17.40;;;12.30;;
4422;SDS011;2224;49.814;8.650;2023-04-25T05:23:03;17.70;;;11.03;;
4422;SDS011;2224;49.814;8.650;2023-04-25T05:25:29;18.40;;;11.10;;
4422;SDS011;2224;49.814;8.650;2023-04-25T05:27:54;18.63;;;9.97;;
4422;SDS011;2224;49.814;8.650;2023-04-25T05:30:19;11.67;;;9.43;;
4422;SDS011;2224;49.814;8.650;2023-04-25T05:32:45;15.63;;;9.90;;
4422;SDS011;2224;49.814;8.650;2023-04-25T05:35:11;15.43;;;10.07;;
4422;SDS011;2224;49.814;8.650;2023-04-25T05:37:37;14.90;;;10.00;;
4422;SDS011;2224;49.814;8.650;2023-04-25T05:40:02;16.80;;;11.00;;
4422;SDS011;2224;49.814;8.650;2023-04-25T05:42:31;19.40;;;10.90;;
4422;SDS011;2224;49.814;8.650;2023-04-25T05:44:57;18.13;;;10.50;;
4422;SDS011;2224;49.814;8.650;2023-04-25T05:47:22;16.87;;;10.60;;
4422;SDS011;2224;49.814;8.650;2023-04-25T05:49:47;13.67;;;10.70;;
4422;SDS011;2224;49.814;8.650;2023-04-25T05:52:13;16.83;;;10.10;;
4422;SDS011;2224;49.814;8.650;2023-04-25T05:54:38;18.93;;;10.63;;
4422;SDS011;2224;49.814;8.650;2023-04-25T05:57:03;20.40;;;10.73;;
4422;SDS011;2224;49.814;8.650;2023-04-25T05:59:29;15.17;;;10.00;;
4422;SDS011;2224;49.814;8.650;2023-04-25T06:01:54;19.13;;;12.13;;
4422;SDS011;2224;49.814;8.650;2023-04-25T06:04:19;17.00;;;11.10;;
4422;SDS011;2224;49.814;8.650;2023-04-25T06:06:45;16.07;;;9.77;;
4422;SDS011;2224;49.814;8.650;2023-04-25T06:09:10;16.23;;;10.73;;
4422;SDS011;2224;49.814;8.650;2023-04-25T06:11:35;21.00;;;9.67;;
4422;SDS011;2224;49.814;8.650;2023-04-25T06:14:01;16.33;;;9.33;;
4422;SDS011;2224;49.814;8.650;2023-04-25T06:16:26;17.23;;;10.63;;
4422;SDS011;2224;49.814;8.650;2023-04-25T06:18:51;16.70;;;10.53;;
4422;SDS011;2224;49.814;8.650;2023-04-25T06:21:17;18.33;;;10.10;;
4422;SDS011;2224;49.814;8.650;2023-04-25T06:23:42;12.63;;;10.90;;
4422;SDS011;2224;49.814;8.650;2023-04-25T06:26:07;17.73;;;10.50;;
4422;SDS011;2224;49.814;8.650;2023-04-25T06:28:33;13.37;;;10.10;;
4422;SDS011;2224;49.814;8.650;2023-04-25T06:30:58;17.20;;;10.97;;
4422;SDS011;2224;49.814;8.650;2023-04-25T06:33:23;20.63;;;11.03;;
4422;SDS011;2224;49.814;8.650;2023-04-25T06:35:49;17.27;;;10.50;;
4422;SDS011;2224;49.814;8.650;2023-04-25T06:38:15;13.20;;;10.43;;
4422;SDS011;2224;49.814;8.650;2023-04-25T06:40:40;16.20;;;8.97;;
4422;SDS011;2224;49.814;8.650;2023-04-25T06:43:05;16.83;;;9.40;;
4422;SDS011;2224;49.814;8.650;2023-04-25T06:45:31;12.93;;;8.00;;
4422;SDS011;2224;49.814;8.650;2023-04-25T06:47:56;11.53;;;8.27;;
4422;SDS011;2224;49.814;8.650;2023-04-25T06:50:21;12.50;;;8.50;;
4422;SDS011;2224;49.814;8.650;2023-04-25T06:52:47;15.80;;;9.73;;
4422;SDS011;2224;49.814;8.650;2023-04-25T06:55:12;13.23;;;8.90;;
4422;SDS011;2224;49.814;8.650;2023-04-25T06:57:37;15.50;;;9.60;;
4422;SDS011;2224;49.814;8.650;2023-04-25T07:00:03;16.23;;;9.00;;
4422;SDS011;2224;49.814;8.650;2023-04-25T07:02:30;11.67;;;8.23;;
4422;SDS011;2224;49.814;8.650;2023-04-25T07:04:56;13.63;;;8.93;;
4422;SDS011;2224;49.814;8.650;2023-04-25T07:07:24;12.07;;;7.83;;
4422;SDS011;2224;49.814;8.650;2023-04-25T07:09:50;15.00;;;8.27;;
4422;SDS011;2224;49.814;8.650;2023-04-25T07:12:15;12.40;;;7.53;;
4422;SDS011;2224;49.814;8.650;2023-04-25T07:14:40;11.20;;;8.00;;
4422;SDS011;2224;49.814;8.650;2023-04-25T07:17:06;11.83;;;7.00;;
4422;SDS011;2224;49.814;8.650;2023-04-25T07:19:32;7.97;;;5.80;;
4422;SDS011;2224;49.814;8.650;2023-04-25T07:21:58;11.33;;;7.20;;
4422;SDS011;2224;49.814;8.650;2023-04-25T07:24:23;9.70;;;6.53;;
4422;SDS011;2224;49.814;8.650;2023-04-25T07:26:48;12.63;;;7.10;;
4422;SDS011;2224;49.814;8.650;2023-04-25T07:29:14;10.60;;;7.13;;
4422;SDS011;2224;49.814;8.650;2023-04-25T07:31:39;12.00;;;8.20;;
4422;SDS011;2224;49.814;8.650;2023-04-25T07:34:05;10.73;;;7.13;;
4422;SDS011;2224;49.814;8.650;2023-04-25T07:36:30;11.50;;;6.83;;
4422;SDS011;2224;49.814;8.650;2023-04-25T07:38:56;10.77;;;8.17;;
4422;SDS011;2224;49.814;8.650;2023-04-25T07:41:21;9.33;;;7.10;;
4422;SDS011;2224;49.814;8.650;2023-04-25T07:43:47;8.10;;;7.30;;
4422;SDS011;2224;49.814;8.650;2023-04-25T07:46:12;14.53;;;7.97;;
4422;SDS011;2224;49.814;8.650;2023-04-25T07:48:37;8.90;;;6.60;;
4422;SDS011;2224;49.814;8.650;2023-04-25T07:51:03;9.97;;;7.17;;
4422;SDS011;2224;49.814;8.650;2023-04-25T07:53:30;7.70;;;6.90;;
4422;SDS011;2224;49.814;8.650;2023-04-25T07:55:55;10.33;;;7.33;;
4422;SDS011;2224;49.814;8.650;2023-04-25T07:58:21;15.33;;;7.00;;
4422;SDS011;2224;49.814;8.650;2023-04-25T08:00:47;8.27;;;6.50;;
4422;SDS011;2224;49.814;8.650;2023-04-25T08:03:13;9.77;;;6.50;;
4422;SDS011;2224;49.814;8.650;2023-04-25T08:05:38;10.87;;;6.70;;
4422;SDS011;2224;49.814;8.650;2023-04-25T08:08:03;9.83;;;6.80;;
4422;SDS011;2224;49.814;8.650;2023-04-25T08:10:31;12.87;;;7.20;;
4422;SDS011;2224;49.814;8.650;2023-04-25T08:12:56;8.00;;;6.53;;
4422;SDS011;2224;49.814;8.650;2023-04-25T08:15:22;8.93;;;5.70;;
4422;SDS011;2224;49.814;8.650;2023-04-25T08:17:47;9.63;;;6.40;;
4422;SDS011;2224;49.814;8.650;2023-04-25T08:20:12;9.10;;;5.90;;
4422;SDS011;2224;49.814;8.650;2023-04-25T08:22:38;9.17;;;5.67;;
4422;SDS011;2224;49.814;8.650;2023-04-25T08:25:03;14.83;;;5.80;;
4422;SDS011;2224;49.814;8.650;2023-04-25T08:27:29;8.07;;;5.53;;
4422;SDS011;2224;49.814;8.650;2023-04-25T08:29:55;6.53;;;4.60;;
4422;SDS011;2224;49.814;8.650;2023-04-25T08:32:20;4.57;;;4.10;;
4422;SDS011;2224;49.814;8.650;2023-04-25T08:34:46;5.87;;;4.40;;
4422;SDS011;2224;49.814;8.650;2023-04-25T08:37:11;7.77;;;4.70;;
4422;SDS011;2224;49.814;8.650;2023-04-25T08:39:37;6.87;;;4.43;;
4422;SDS011;2224;49.814;8.650;2023-04-25T08:42:02;7.17;;;3.80;;
4422;SDS011;2224;49.814;8.650;2023-04-25T08:44:33;7.40;;;4.13;;
4422;SDS011;2224;49.814;8.650;2023-04-25T08:46:59;4.70;;;4.20;;
4422;SDS011;2224;49.814;8.650;2023-04-25T08:49:32;8.57;;;5.17;;
4422;SDS011;2224;49.814;8.650;2023-04-25T08:51:59;7.67;;;5.40;;
4422;SDS011;2224;49.814;8.650;2023-04-25T08:54:27;7.90;;;4.63;;
4422;SDS011;2224;49.814;8.650;2023-04-25T08:56:54;8.50;;;5.00;;
4422;SDS011;2224;49.814;8.650;2023-04-25T08:59:19;6.33;;;5.50;;
4422;SDS011;2224;49.814;8.650;2023-04-25T09:01:45;7.47;;;4.27;;
4422;SDS011;2224;49.814;8.650;2023-04-25T09:04:11;8.00;;;5.57;;
4422;SDS011;2224;49.814;8.650;2023-04-25T09:06:37;5.53;;;4.87;;
4422;SDS011;2224;49.814;8.650;2023-04-25T09:09:03;7.07;;;4.27;;
4422;SDS011;2224;49.814;8.650;2023-04-25T09:11:30;6.10;;;4.90;;
4422;SDS011;2224;49.814;8.650;2023-04-25T09:16:58;8.37;;;4.93;;
4422;SDS011;2224;49.814;8.650;2023-04-25T09:19:27;11.00;;;6.87;;
4422;SDS011;2224;49.814;8.650;2023-04-25T09:21:55;4.63;;;4.00;;
4422;SDS011;2224;49.814;8.650;2023-04-25T09:27:11;6.60;;;4.57;;
4422;SDS011;2224;49.814;8.650;2023-04-25T09:29:38;4.47;;;3.37;;
4422;SDS011;2224;49.814;8.650;2023-04-25T09:32:21;7.13;;;4.20;;
4422;SDS011;2224;49.814;8.650;2023-04-25T09:34:54;4.97;;;3.70;;
4422;SDS011;2224;49.814;8.650;2023-04-25T09:37:28;4.90;;;4.40;;
4422;SDS011;2224;49.814;8.650;2023-04-25T09:39:58;5.27;;;4.30;;
4422;SDS011;2224;49.814;8.650;2023-04-25T09:42:25;6.43;;;4.27;;
4422;SDS011;2224;49.814;8.650;2023-04-25T09:44:52;5.63;;;4.13;;
4422;SDS011;2224;49.814;8.650;2023-04-25T09:47:18;5.20;;;4.70;;
4422;SDS011;2224;49.814;8.650;2023-04-25T09:49:46;5.70;;;4.70;;
4422;SDS011;2224;49.814;8.650;2023-04-25T09:52:15;8.47;;;4.73;;
4422;SDS011;2224;49.814;8.650;2023-04-25T09:54:42;6.27;;;4.60;;
4422;SDS011;2224;49.814;8.650;2023-04-25T09:57:11;7.10;;;4.43;;
4422;SDS011;2224;49.814;8.650;2023-04-25T09:59:47;6.17;;;4.97;;
4422;SDS011;2224;49.814;8.650;2023-04-25T10:02:17;5.07;;;4.50;;
4422;SDS011;2224;49.814;8.650;2023-04-25T10:04:46;6.03;;;4.10;;
4422;SDS011;2224;49.814;8.650;2023-04-25T10:07:13;6.83;;;4.67;;
4422;SDS011;2224;49.814;8.650;2023-04-25T10:09:39;8.23;;;4.77;;
4422;SDS011;2224;49.814;8.650;2023-04-25T10:12:05;5.40;;;4.87;;
4422;SDS011;2224;49.814;8.650;2023-04-25T10:14:32;5.00;;;3.70;;
4422;SDS011;2224;49.814;8.650;2023-04-25T10:16:58;7.20;;;5.00;;
4422;SDS011;2224;49.814;8.650;2023-04-25T10:19:25;6.27;;;4.43;;
4422;SDS011;2224;49.814;8.650;2023-04-25T10:21:52;5.53;;;4.10;;
4422;SDS011;2224;49.814;8.650;2023-04-25T10:24:21;6.97;;;4.70;;
4422;SDS011;2224;49.814;8.650;2023-04-25T10:26:47;5.80;;;4.50;;
4422;SDS011;2224;49.814;8.650;2023-04-25T10:29:15;6.37;;;4.63;;
4422;SDS011;2224;49.814;8.650;2023-04-25T10:31:46;6.93;;;4.70;;
4422;SDS011;2224;49.814;8.650;2023-04-25T10:34:13;5.40;;;4.70;;
4422;SDS011;2224;49.814;8.650;2023-04-25T10:36:38;6.63;;;5.13;;
4422;SDS011;2224;49.814;8.650;2023-04-25T10:39:05;6.23;;;5.00;;
4422;SDS011;2224;49.814;8.650;2023-04-25T10:41:32;6.17;;;5.23;;
4422;SDS011;2224;49.814;8.650;2023-04-25T10:44:10;6.93;;;5.40;;
4422;SDS011;2224;49.814;8.650;2023-04-25T10:46:36;7.27;;;5.97;;
4422;SDS011;2224;49.814;8.650;2023-04-25T10:49:02;6.57;;;5.40;;
4422;SDS011;2224;49.814;8.650;2023-04-25T10:51:29;7.20;;;5.60;;
4422;SDS011;2224;49.814;8.650;2023-04-25T10:56:22;7.00;;;5.40;;
4422;SDS011;2224;49.814;8.650;2023-04-25T10:58:50;6.30;;;5.40;;
4422;SDS011;2224;49.814;8.650;2023-04-25T11:01:19;8.03;;;5.67;;
4422;SDS011;2224;49.814;8.650;2023-04-25T11:03:45;9.50;;;5.77;;
4422;SDS011;2224;49.814;8.650;2023-04-25T11:06:18;6.70;;;5.00;;
4422;SDS011;2224;49.814;8.650;2023-04-25T11:08:48;7.00;;;5.77;;
4422;SDS011;2224;49.814;8.650;2023-04-25T11:11:15;7.00;;;5.53;;
4422;SDS011;2224;49.814;8.650;2023-04-25T11:13:43;7.17;;;6.13;;
4422;SDS011;2224;49.814;8.650;2023-04-25T11:16:09;9.30;;;6.60;;
4422;SDS011;2224;49.814;8.650;2023-04-25T11:18:35;7.50;;;6.53;;
4422;SDS011;2224;49.814;8.650;2023-04-25T11:21:00;8.90;;;6.03;;
4422;SDS011;2224;49.814;8.650;2023-04-25T11:23:27;11.40;;;6.20;;
4422;SDS011;2224;49.814;8.650;2023-04-25T11:25:55;10.17;;;6.10;;
4422;SDS011;2224;49.814;8.650;2023-04-25T11:28:20;8.30;;;5.77;;
4422;SDS011;2224;49.814;8.650;2023-04-25T11:30:49;10.97;;;5.40;;
4422;SDS011;2224;49.814;8.650;2023-04-25T11:33:15;6.80;;;5.23;;
4422;SDS011;2224;49.814;8.650;2023-04-25T11:35:41;9.70;;;5.70;;
4422;SDS011;2224;49.814;8.650;2023-04-25T11:38:06;5.03;;;4.50;;
4422;SDS011;2224;49.814;8.650;2023-04-25T11:40:32;8.23;;;5.60;;
4422;SDS011;2224;49.814;8.650;2023-04-25T11:42:59;8.80;;;6.73;;
4422;SDS011;2224;49.814;8.650;2023-04-25T11:45:25;9.07;;;6.70;;
4422;SDS011;2224;49.814;8.650;2023-04-25T11:47:50;6.10;;;5.50;;
4422;SDS011;2224;49.814;8.650;2023-04-25T11:50:15;10.43;;;6.30;;
4422;SDS011;2224;49.814;8.650;2023-04-25T11:52:45;11.93;;;7.10;;
4422;SDS011;2224;49.814;8.650;2023-04-25T11:55:15;8.20;;;6.23;;
4422;SDS011;2224;49.814;8.650;2023-04-25T11:57:43;8.63;;;6.50;;
4422;SDS011;2224;49.814;8.650;2023-04-25T12:02:45;7.60;;;6.80;;
4422;SDS011;2224;49.814;8.650;2023-04-25T12:05:12;8.30;;;6.57;;
4422;SDS011;2224;49.814;8.650;2023-04-25T12:07:40;8.13;;;7.07;;
4422;SDS011;2224;49.814;8.650;2023-04-25T12:10:06;13.73;;;7.63;;
4422;SDS011;2224;49.814;8.650;2023-04-25T12:12:33;9.37;;;5.53;;
4422;SDS011;2224;49.814;8.650;2023-04-25T12:15:08;8.63;;;6.57;;
4422;SDS011;2224;49.814;8.650;2023-04-25T12:17:35;8.30;;;6.40;;
4422;SDS011;2224;49.814;8.650;2023-04-25T12:20:05;11.87;;;7.10;;
4422;SDS011;2224;49.814;8.650;2023-04-25T12:22:34;7.77;;;6.83;;
4422;SDS011;2224;49.814;8.650;2023-04-25T12:25:01;9.60;;;6.63;;
4422;SDS011;2224;49.814;8.650;2023-04-25T12:27:29;11.53;;;6.00;;
4422;SDS011;2224;49.814;8.650;2023-04-25T12:29:56;12.13;;;6.07;;
4422;SDS011;2224;49.814;8.650;2023-04-25T12:32:21;7.80;;;6.43;;
4422;SDS011;2224;49.814;8.650;2023-04-25T12:34:47;8.07;;;6.03;;
4422;SDS011;2224;49.814;8.650;2023-04-25T12:37:12;9.90;;;5.77;;
4422;SDS011;2224;49.814;8.650;2023-04-25T12:39:38;6.13;;;5.43;;
4422;SDS011;2224;49.814;8.650;2023-04-25T12:42:03;7.73;;;5.10;;
4422;SDS011;2224;49.814;8.650;2023-04-25T12:44:28;7.87;;;5.53;;
4422;SDS011;2224;49.814;8.650;2023-04-25T12:46:54;8.70;;;5.37;;
4422;SDS011;2224;49.814;8.650;2023-04-25T12:49:20;10.30;;;6.10;;
4422;SDS011;2224;49.814;8.650;2023-04-25T12:51:45;10.80;;;5.80;;
4422;SDS011;2224;49.814;8.650;2023-04-25T12:54:11;7.60;;;5.40;;
4422;SDS011;2224;49.814;8.650;2023-04-25T12:56:36;8.57;;;5.97;;
4422;SDS011;2224;49.814;8.650;2023-04-25T12:59:02;10.33;;;5.80;;
4422;SDS011;2224;49.814;8.650;2023-04-25T13:01:28;10.20;;;5.97;;
4422;SDS011;2224;49.814;8.650;2023-04-25T13:03:53;9.50;;;5.67;;
4422;SDS011;2224;49.814;8.650;2023-04-25T13:06:19;6.47;;;5.50;;
4422;SDS011;2224;49.814;8.650;2023-04-25T13:08:45;8.67;;;5.10;;
4422;SDS011;2224;49.814;8.650;2023-04-25T13:11:11;8.23;;;5.00;;
4422;SDS011;2224;49.814;8.650;2023-04-25T13:13:36;8.27;;;5.50;;
4422;SDS011;2224;49.814;8.650;2023-04-25T13:16:02;8.00;;;5.87;;
4422;SDS011;2224;49.814;8.650;2023-04-25T13:18:28;6.60;;;5.90;;
4422;SDS011;2224;49.814;8.650;2023-04-25T13:20:54;7.00;;;5.20;;
4422;SDS011;2224;49.814;8.650;2023-04-25T13:23:19;8.63;;;5.33;;
4422;SDS011;2224;49.814;8.650;2023-04-25T13:25:48;10.87;;;5.77;;
4422;SDS011;2224;49.814;8.650;2023-04-25T13:28:13;7.20;;;5.13;;
4422;SDS011;2224;49.814;8.650;2023-04-25T13:30:39;7.30;;;5.30;;
4422;SDS011;2224;49.814;8.650;2023-04-25T13:33:04;9.07;;;5.90;;
4422;SDS011;2224;49.814;8.650;2023-04-25T13:35:31;9.27;;;5.20;;
4422;SDS011;2224;49.814;8.650;2023-04-25T13:37:57;6.53;;;5.63;;
4422;SDS011;2224;49.814;8.650;2023-04-25T13:40:23;6.23;;;4.87;;
4422;SDS011;2224;49.814;8.650;2023-04-25T13:42:48;12.10;;;6.07;;
4422;SDS011;2224;49.814;8.650;2023-04-25T13:45:13;7.50;;;5.50;;
4422;SDS011;2224;49.814;8.650;2023-04-25T13:47:39;8.57;;;5.23;;
4422;SDS011;2224;49.814;8.650;2023-04-25T13:50:04;8.93;;;4.50;;
4422;SDS011;2224;49.814;8.650;2023-04-25T13:52:30;9.83;;;4.37;;
4422;SDS011;2224;49.814;8.650;2023-04-25T13:54:56;6.47;;;4.83;;
4422;SDS011;2224;49.814;8.650;2023-04-25T13:57:22;5.93;;;5.03;;
4422;SDS011;2224;49.814;8.650;2023-04-25T13:59:47;6.97;;;4.97;;
4422;SDS011;2224;49.814;8.650;2023-04-25T14:02:12;5.07;;;4.30;;
4422;SDS011;2224;49.814;8.650;2023-04-25T14:04:38;8.83;;;4.70;;
4422;SDS011;2224;49.814;8.650;2023-04-25T14:07:03;5.33;;;4.80;;
4422;SDS011;2224;49.814;8.650;2023-04-25T14:09:29;8.67;;;5.00;;
4422;SDS011;2224;49.814;8.650;2023-04-25T14:11:54;6.73;;;5.80;;
4422;SDS011;2224;49.814;8.650;2023-04-25T14:14:20;6.50;;;5.00;;
4422;SDS011;2224;49.814;8.650;2023-04-25T14:16:46;7.47;;;4.53;;
4422;SDS011;2224;49.814;8.650;2023-04-25T14:19:15;10.70;;;4.80;;
4422;SDS011;2224;49.814;8.650;2023-04-25T14:21:41;7.50;;;4.70;;
4422;SDS011;2224;49.814;8.650;2023-04-25T14:24:06;5.33;;;4.03;;
4422;SDS011;2224;49.814;8.650;2023-04-25T14:26:33;12.83;;;4.47;;
4422;SDS011;2224;49.814;8.650;2023-04-25T14:29:00;6.03;;;3.87;;
4422;SDS011;2224;49.814;8.650;2023-04-25T14:31:25;8.90;;;4.43;;
4422;SDS011;2224;49.814;8.650;2023-04-25T14:33:50;8.67;;;4.17;;
4422;SDS011;2224;49.814;8.650;2023-04-25T14:36:16;7.67;;;5.20;;
4422;SDS011;2224;49.814;8.650;2023-04-25T14:38:41;5.37;;;4.50;;
4422;SDS011;2224;49.814;8.650;2023-04-25T14:41:06;6.77;;;4.20;;
4422;SDS011;2224;49.814;8.650;2023-04-25T14:43:32;6.57;;;4.43;;
4422;SDS011;2224;49.814;8.650;2023-04-25T14:45:57;6.17;;;4.67;;
4422;SDS011;2224;49.814;8.650;2023-04-25T14:48:22;4.93;;;4.43;;
4422;SDS011;2224;49.814;8.650;2023-04-25T14:50:48;5.90;;;4.30;;
4422;SDS011;2224;49.814;8.650;2023-04-25T14:53:13;5.17;;;4.23;;
4422;SDS011;2224;49.814;8.650;2023-04-25T14:55:39;5.90;;;4.80;;
4422;SDS011;2224;49.814;8.650;2023-04-25T14:58:05;8.60;;;5.23;;
4422;SDS011;2224;49.814;8.650;2023-04-25T15:00:30;8.37;;;4.20;;
4422;SDS011;2224;49.814;8.650;2023-04-25T15:02:56;8.13;;;5.10;;
4422;SDS011;2224;49.814;8.650;2023-04-25T15:05:22;7.33;;;4.77;;
4422;SDS011;2224;49.814;8.650;2023-04-25T15:07:47;9.53;;;5.27;;